Time;durP1;ratioP1;P1;durP2;ratioP2;P2;SDS_P1;SDS_P2;PMS_P1;PMS_P2;Temp;Humidity;BMP_temperature;BMP_pressure;BME280_temperature;BME280_humidity;BME280_pressure;Samples;Min_cycle;Max_cycle;Signal;HPM_P1;HPM_P2
2023/03/22 00:00:27;;;;;;;11.95;1.60;;;9.30;99.90;;;;;;5005257;28;20030;-75
2023/03/22 00:02:55;;;;;;;6.90;1.20;;;9.30;99.90;;;;;;5000495;28;20276;-75
2023/03/22 00:05:20;;;;;;;4.53;1.38;;;9.30;99.90;;;;;;5023822;28;20034;-74
2023/03/22 00:07:49;;;;;;;7.10;1.58;;;9.30;99.90;;;;;;5010303;28;20034;-74
2023/03/22 00:10:15;;;;;;;8.45;1.65;;;9.30;99.90;;;;;;5005642;28;20045;-75
2023/03/22 00:12:44;;;;;;;8.98;1.85;;;9.30;99.90;;;;;;5004377;28;20148;-74
2023/03/22 00:15:10;;;;;;;4.97;1.80;;;9.30;99.90;;;;;;5004166;28;20037;-75
2023/03/22 00:17:35;;;;;;;4.28;0.63;;;9.30;99.90;;;;;;5004272;28;20041;-74
2023/03/22 00:20:05;;;;;;;10.93;1.42;;;9.30;99.90;;;;;;5000429;28;20026;-74
2023/03/22 00:22:31;;;;;;;7.78;1.15;;;9.30;99.90;;;;;;5001805;28;20406;-74
2023/03/22 00:25:03;;;;;;;7.63;1.45;;;9.30;99.90;;;;;;5002167;28;20030;-72
2023/03/22 00:27:29;;;;;;;5.30;1.27;;;9.20;99.90;;;;;;4998570;28;20038;-74
2023/03/22 00:29:55;;;;;;;5.35;1.38;;;9.20;99.90;;;;;;5003150;28;20517;-75
2023/03/22 00:32:21;;;;;;;6.05;1.20;;;9.10;99.90;;;;;;5001129;28;20035;-75
2023/03/22 00:34:46;;;;;;;6.75;1.00;;;9.10;99.90;;;;;;5002249;28;20041;-72
2023/03/22 00:37:12;;;;;;;4.65;1.10;;;9.10;99.90;;;;;;5001360;28;20065;-75
2023/03/22 00:39:37;;;;;;;9.90;1.38;;;9.10;99.90;;;;;;5003096;28;20926;-73
2023/03/22 00:42:05;;;;;;;5.78;1.08;;;9.00;99.90;;;;;;5006558;28;20045;-74
2023/03/22 00:44:30;;;;;;;9.20;1.60;;;9.00;99.90;;;;;;5014650;28;20037;-75
2023/03/22 00:46:56;;;;;;;4.35;0.90;;;9.00;99.90;;;;;;5001654;28;20041;-75
2023/03/22 00:49:21;;;;;;;5.68;1.25;;;9.00;99.90;;;;;;5001255;28;20566;-76
2023/03/22 00:51:47;;;;;;;8.10;1.55;;;9.00;99.90;;;;;;4999641;28;20145;-74
2023/03/22 00:54:12;;;;;;;10.90;1.50;;;9.10;99.90;;;;;;5000395;28;20035;-73
2023/03/22 00:56:48;;;;;;;10.80;2.15;;;9.10;99.90;;;;;;4999899;28;20046;-74
2023/03/22 00:59:15;;;;;;;4.38;0.85;;;9.10;99.90;;;;;;5001504;28;20041;-75
2023/03/22 01:01:42;;;;;;;6.93;0.75;;;9.10;99.90;;;;;;5002595;28;20049;-75
2023/03/22 01:04:07;;;;;;;6.63;1.20;;;9.10;99.90;;;;;;5000198;28;20034;-75
2023/03/22 01:06:34;;;;;;;6.03;0.90;;;9.10;99.90;;;;;;5005749;28;20073;-74
2023/03/22 01:09:00;;;;;;;4.72;1.02;;;9.20;99.90;;;;;;4998894;28;20045;-75
2023/03/22 01:11:27;;;;;;;5.95;0.82;;;9.20;99.90;;;;;;5011814;28;20042;-74
2023/03/22 01:13:53;;;;;;;6.57;1.70;;;9.20;99.90;;;;;;4996411;28;20046;-74
2023/03/22 01:16:19;;;;;;;4.43;0.90;;;9.30;99.90;;;;;;5006114;28;20030;-74
2023/03/22 01:18:45;;;;;;;3.90;0.80;;;9.30;99.90;;;;;;5001342;28;20116;-76
2023/03/22 01:21:10;;;;;;;4.82;0.90;;;9.30;99.90;;;;;;4999594;28;20034;-75
2023/03/22 01:23:36;;;;;;;3.55;1.23;;;9.40;99.90;;;;;;5001406;28;20040;-72
2023/03/22 01:26:03;;;;;;;5.68;1.35;;;9.30;99.90;;;;;;4999741;28;20125;-73
2023/03/22 01:28:29;;;;;;;10.00;1.55;;;9.40;99.90;;;;;;5015500;28;20029;-71
2023/03/22 01:30:55;;;;;;;8.55;1.15;;;9.40;99.90;;;;;;5025754;28;20037;-73
2023/03/22 01:33:21;;;;;;;4.40;0.70;;;9.30;99.90;;;;;;5009338;28;20144;-73
2023/03/22 01:35:47;;;;;;;9.60;1.45;;;9.40;99.90;;;;;;5000587;28;20124;-74
2023/03/22 01:38:12;;;;;;;12.20;2.03;;;9.40;99.90;;;;;;4998852;28;20446;-72
2023/03/22 01:40:38;;;;;;;9.82;1.20;;;9.40;99.90;;;;;;4998528;28;20042;-74
2023/03/22 01:43:12;;;;;;;4.07;1.00;;;9.40;99.90;;;;;;4999535;28;20045;-75
2023/03/22 01:45:52;;;;;;;7.75;0.80;;;9.40;99.90;;;;;;5000986;28;20041;-74
2023/03/22 01:48:33;;;;;;;6.95;1.55;;;9.40;99.90;;;;;;5000950;28;20029;-74
2023/03/22 01:51:10;;;;;;;7.22;1.70;;;9.30;99.90;;;;;;5001444;28;20026;-74
2023/03/22 01:53:40;;;;;;;3.28;0.80;;;9.30;99.90;;;;;;5009056;28;20022;-74
2023/03/22 01:56:06;;;;;;;4.03;1.27;;;9.40;99.90;;;;;;4996247;28;20057;-74
2023/03/22 01:58:36;;;;;;;7.32;0.90;;;9.40;99.90;;;;;;5001238;28;20034;-74
2023/03/22 02:01:06;;;;;;;4.10;1.23;;;9.30;99.90;;;;;;4996852;28;20053;-75
2023/03/22 02:03:44;;;;;;;8.52;1.25;;;9.30;99.90;;;;;;5011470;28;20042;-75
2023/03/22 02:06:10;;;;;;;5.53;1.25;;;9.40;99.90;;;;;;5006191;28;20400;-73
2023/03/22 02:08:36;;;;;;;6.55;0.80;;;9.40;99.90;;;;;;5001640;28;20033;-75
2023/03/22 02:11:05;;;;;;;10.07;1.10;;;9.40;99.90;;;;;;4996832;28;20449;-71
2023/03/22 02:13:49;;;;;;;5.00;0.77;;;9.40;99.90;;;;;;5010763;28;20042;-74
2023/03/22 02:16:35;;;;;;;4.90;1.55;;;9.40;99.90;;;;;;4996568;28;20042;-75
2023/03/22 02:19:30;;;;;;;7.38;0.93;;;9.40;99.90;;;;;;4997723;28;20038;-75
2023/03/22 02:22:15;;;;;;;5.28;1.15;;;9.50;99.90;;;;;;5000147;28;20562;-76
2023/03/22 02:25:05;;;;;;;3.13;1.05;;;9.50;99.90;;;;;;5002529;28;20045;-72
2023/03/22 02:27:49;;;;;;;5.35;1.98;;;9.50;99.90;;;;;;5018654;28;20041;-74
2023/03/22 02:30:33;;;;;;;6.57;1.13;;;9.50;99.90;;;;;;4995168;28;20139;-74
2023/03/22 02:33:17;;;;;;;7.63;2.15;;;9.60;99.90;;;;;;4999197;28;20088;-76
2023/03/22 02:36:30;;;;;;;6.63;1.92;;;9.60;99.90;;;;;;5009942;28;20033;-76
2023/03/22 02:39:05;;;;;;;14.27;3.85;;;9.60;99.90;;;;;;4926547;29;20043;-73
2023/03/22 02:41:45;;;;;;;7.97;2.25;;;9.70;99.90;;;;;;4993010;28;20108;-72
2023/03/22 02:44:27;;;;;;;9.98;2.72;;;9.70;99.90;;;;;;5008380;28;20041;-76
2023/03/22 02:47:06;;;;;;;7.57;2.60;;;9.70;99.90;;;;;;5008018;28;20069;-74
2023/03/22 02:50:08;;;;;;;10.20;2.78;;;9.80;99.90;;;;;;4996836;28;20479;-75
2023/03/22 02:53:11;;;;;;;8.05;2.80;;;9.80;99.90;;;;;;5018345;28;20450;-75
2023/03/22 02:55:43;;;;;;;8.40;3.20;;;9.80;99.90;;;;;;5001131;28;20034;-71
2023/03/22 02:58:26;;;;;;;9.80;3.20;;;9.70;99.90;;;;;;4993881;28;20061;-73
2023/03/22 03:00:58;;;;;;;10.45;3.47;;;9.70;99.90;;;;;;4996780;28;20487;-73
2023/03/22 03:03:28;;;;;;;12.20;3.20;;;9.70;99.90;;;;;;4996305;28;20027;-74
2023/03/22 03:05:57;;;;;;;8.07;3.37;;;9.60;99.90;;;;;;4998225;28;20489;-75
2023/03/22 03:08:24;;;;;;;9.45;3.47;;;9.60;99.90;;;;;;4994479;28;20383;-74
2023/03/22 03:10:51;;;;;;;6.93;3.20;;;9.60;99.90;;;;;;4997694;28;20061;-74
2023/03/22 03:13:17;;;;;;;11.13;3.63;;;9.60;99.90;;;;;;5001880;28;20101;-74
2023/03/22 03:15:48;;;;;;;12.82;3.40;;;9.50;99.90;;;;;;4994542;28;20038;-76
2023/03/22 03:18:13;;;;;;;;;;;9.60;99.90;;;;;;4992830;28;20147;-76
2023/03/22 03:21:03;;;;;;;11.80;3.70;;;9.50;99.90;;;;;;5006314;28;20600;-75
2023/03/22 03:23:32;;;;;;;13.95;3.95;;;9.60;99.90;;;;;;5023851;28;20048;-76
2023/03/22 03:26:09;;;;;;;11.40;3.75;;;9.50;99.90;;;;;;4993531;28;20128;-71
2023/03/22 03:28:54;;;;;;;9.40;3.45;;;9.50;99.90;;;;;;5009994;28;20061;-76
2023/03/22 03:31:19;;;;;;;10.85;3.60;;;9.50;99.90;;;;;;4996116;28;20058;-74
2023/03/22 03:34:09;;;;;;;10.00;4.22;;;9.50;99.90;;;;;;5025073;28;20524;-74
2023/03/22 03:36:38;;;;;;;12.48;5.15;;;9.50;99.90;;;;;;4995560;28;20605;-76
2023/03/22 03:39:08;;;;;;;10.82;5.25;;;9.50;99.90;;;;;;5003207;28;20042;-73
2023/03/22 03:41:34;;;;;;;;;;;9.50;99.90;;;;;;5001775;28;20061;-74
2023/03/22 03:44:01;;;;;;;11.50;3.95;;;9.50;99.90;;;;;;4999376;28;19913;-75
2023/03/22 03:46:28;;;;;;;14.02;5.07;;;9.50;99.90;;;;;;5012479;28;20042;-75
2023/03/22 03:48:56;;;;;;;9.35;4.50;;;9.50;99.90;;;;;;5002585;28;20100;-73
2023/03/22 03:51:22;;;;;;;11.07;3.80;;;9.50;99.90;;;;;;5003862;28;20565;-74
2023/03/22 03:53:47;;;;;;;11.15;4.47;;;9.50;99.90;;;;;;5002990;28;20030;-74
2023/03/22 03:56:16;;;;;;;12.10;3.80;;;9.50;99.90;;;;;;5002815;28;20056;-73
2023/03/22 03:58:41;;;;;;;12.30;5.38;;;9.50;99.90;;;;;;4995147;28;20133;-74
2023/03/22 04:01:07;;;;;;;14.55;5.30;;;9.50;99.90;;;;;;4998223;28;20129;-73
2023/03/22 04:03:32;;;;;;;16.08;5.75;;;9.50;99.90;;;;;;5000019;28;20522;-75
2023/03/22 04:05:58;;;;;;;8.98;4.45;;;9.50;99.90;;;;;;5000936;28;20069;-73
2023/03/22 04:08:24;;;;;;;11.90;4.57;;;9.50;99.90;;;;;;5001559;28;20038;-75
2023/03/22 04:10:51;;;;;;;11.43;4.10;;;9.60;99.90;;;;;;5002285;28;20093;-75
2023/03/22 04:13:20;;;;;;;13.18;5.38;;;9.60;99.90;;;;;;5000553;28;20116;-74
2023/03/22 04:15:46;;;;;;;9.40;4.10;;;9.50;99.90;;;;;;4998510;28;20123;-75
2023/03/22 04:18:12;;;;;;;13.52;4.22;;;9.60;99.90;;;;;;5022070;28;20491;-74
2023/03/22 04:20:41;;;;;;;14.45;4.65;;;9.60;99.90;;;;;;5000455;28;20560;-73
2023/03/22 04:23:10;;;;;;;10.85;4.53;;;9.60;99.90;;;;;;4998469;28;20069;-73
2023/03/22 04:25:36;;;;;;;10.20;4.95;;;9.60;99.90;;;;;;5003444;28;20505;-73
2023/03/22 04:28:06;;;;;;;11.80;4.90;;;9.60;99.90;;;;;;5004925;28;20120;-73
2023/03/22 04:30:34;;;;;;;9.95;3.75;;;9.70;99.90;;;;;;5002032;28;20034;-76
2023/03/22 04:33:07;;;;;;;10.40;3.75;;;9.60;99.90;;;;;;5003512;28;20038;-74
2023/03/22 04:35:34;;;;;;;12.05;4.45;;;9.60;99.90;;;;;;5002180;28;20038;-73
2023/03/22 04:38:00;;;;;;;12.07;4.95;;;9.60;99.90;;;;;;5003835;28;20058;-74
2023/03/22 04:40:27;;;;;;;10.77;4.18;;;9.70;99.90;;;;;;5003815;28;20041;-74
2023/03/22 04:42:57;;;;;;;10.05;3.78;;;9.70;99.90;;;;;;5003947;28;20041;-71
2023/03/22 04:45:23;;;;;;;9.50;3.58;;;9.80;99.90;;;;;;5002621;28;20050;-74
2023/03/22 04:47:49;;;;;;;9.35;3.88;;;9.80;99.90;;;;;;5005229;28;20108;-73
2023/03/22 04:50:14;;;;;;;12.57;3.85;;;9.80;99.90;;;;;;5006129;28;20475;-73
2023/03/22 04:52:40;;;;;;;12.63;3.80;;;9.80;99.90;;;;;;5001459;28;20049;-75
2023/03/22 04:55:06;;;;;;;10.63;4.63;;;9.80;99.90;;;;;;5002060;28;20041;-73
2023/03/22 04:57:33;;;;;;;10.95;4.10;;;9.80;99.90;;;;;;5000742;28;20975;-73
2023/03/22 04:59:59;;;;;;;9.60;3.42;;;9.80;99.90;;;;;;5003206;28;20052;-75
2023/03/22 05:02:24;;;;;;;11.52;3.75;;;9.80;99.90;;;;;;4999927;28;20494;-74
2023/03/22 05:04:50;;;;;;;9.30;3.28;;;9.80;99.90;;;;;;5002017;28;20022;-75
2023/03/22 05:07:19;;;;;;;9.60;3.20;;;9.70;99.90;;;;;;5003460;28;20111;-75
2023/03/22 05:09:44;;;;;;;15.00;5.70;;;9.70;99.90;;;;;;5000004;28;20482;-74
2023/03/22 05:12:16;;;;;;;12.40;3.60;;;9.70;99.90;;;;;;5001305;28;20045;-74
2023/03/22 05:14:41;;;;;;;10.63;3.30;;;9.70;99.90;;;;;;5002696;28;20038;-75
2023/03/22 05:17:07;;;;;;;6.85;2.90;;;9.60;99.90;;;;;;5001514;28;20065;-75
2023/03/22 05:19:32;;;;;;;7.93;3.05;;;9.70;99.90;;;;;;5002117;28;20026;-75
2023/03/22 05:22:00;;;;;;;11.30;3.70;;;9.60;99.90;;;;;;5001879;28;20125;-75
2023/03/22 05:24:27;;;;;;;8.90;2.92;;;9.60;99.90;;;;;;4998994;28;20066;-74
2023/03/22 05:26:59;;;;;;;9.98;3.85;;;9.60;99.90;;;;;;5000433;28;20084;-75
2023/03/22 05:29:26;;;;;;;8.82;3.42;;;9.60;99.90;;;;;;4998603;28;20491;-73
2023/03/22 05:31:51;;;;;;;6.47;3.38;;;9.60;99.90;;;;;;4998087;28;20061;-74
2023/03/22 05:34:19;;;;;;;14.40;3.15;;;9.60;99.90;;;;;;5000823;28;20482;-74
2023/03/22 05:36:45;;;;;;;9.00;2.58;;;9.60;99.90;;;;;;4996443;28;20061;-74
2023/03/22 05:39:11;;;;;;;11.35;3.17;;;9.60;99.90;;;;;;4997414;28;20130;-74
2023/03/22 05:41:36;;;;;;;8.35;3.10;;;9.60;99.90;;;;;;4998252;28;20041;-74
2023/03/22 05:44:03;;;;;;;7.93;2.90;;;9.60;99.90;;;;;;4996915;28;20038;-75
2023/03/22 05:46:29;;;;;;;7.07;2.72;;;9.70;99.90;;;;;;4999026;28;20495;-74
2023/03/22 05:48:54;;;;;;;5.10;2.67;;;9.80;99.90;;;;;;5002643;28;20042;-74
2023/03/22 05:51:20;;;;;;;11.32;2.92;;;9.70;99.90;;;;;;4999268;28;20491;-75
2023/03/22 05:53:46;;;;;;;9.07;2.47;;;9.70;99.90;;;;;;5001254;28;20053;-74
2023/03/22 05:56:13;;;;;;;7.55;2.55;;;9.80;99.90;;;;;;4997105;28;21324;-74
2023/03/22 05:58:40;;;;;;;7.28;2.40;;;9.80;99.90;;;;;;5004379;28;20391;-74
2023/03/22 06:01:10;;;;;;;7.05;2.70;;;9.80;99.90;;;;;;5001433;28;20026;-76
2023/03/22 06:03:37;;;;;;;10.63;2.35;;;9.80;99.90;;;;;;5011670;28;20041;-74
2023/03/22 06:06:05;;;;;;;10.35;2.42;;;9.70;99.90;;;;;;5001507;28;20116;-73
2023/03/22 06:08:32;;;;;;;4.03;2.10;;;9.80;99.90;;;;;;5001174;28;20555;-75
2023/03/22 06:10:58;;;;;;;6.18;1.85;;;9.80;99.90;;;;;;4996317;28;20038;-73
2023/03/22 06:13:24;;;;;;;8.38;1.92;;;9.80;99.90;;;;;;4996782;28;20042;-74
2023/03/22 06:15:50;;;;;;;9.57;2.30;;;9.80;99.90;;;;;;5018460;28;20034;-74
2023/03/22 06:18:16;;;;;;;8.43;1.90;;;9.90;99.90;;;;;;4999797;28;20053;-75
2023/03/22 06:20:42;;;;;;;6.03;1.70;;;10.00;99.90;;;;;;5009048;28;20041;-74
2023/03/22 06:23:11;;;;;;;6.65;1.80;;;10.00;99.90;;;;;;4998227;28;20499;-73
2023/03/22 06:25:39;;;;;;;5.13;1.90;;;10.00;99.90;;;;;;4998411;28;20080;-75
2023/03/22 06:28:08;;;;;;;8.93;2.03;;;10.10;99.90;;;;;;4997331;28;20037;-73
2023/03/22 06:30:33;;;;;;;7.43;1.35;;;10.20;99.90;;;;;;4996161;28;20031;-74
2023/03/22 06:33:03;;;;;;;7.10;1.45;;;10.20;99.90;;;;;;4997791;28;20033;-75
2023/03/22 06:35:29;;;;;;;9.10;2.00;;;10.30;99.90;;;;;;4997211;28;20705;-73
2023/03/22 06:37:55;;;;;;;6.82;2.40;;;10.30;99.90;;;;;;4998206;28;20083;-74
2023/03/22 06:40:21;;;;;;;6.90;1.90;;;10.40;99.90;;;;;;5021362;28;20046;-73
2023/03/22 06:42:46;;;;;;;7.85;1.45;;;10.50;99.90;;;;;;5023161;28;20387;-71
2023/03/22 06:45:15;;;;;;;3.75;1.38;;;10.60;99.90;;;;;;4999755;28;20548;-74
2023/03/22 06:47:41;;;;;;;6.60;1.52;;;10.70;99.90;;;;;;4997454;28;20038;-75
2023/03/22 06:50:07;;;;;;;6.97;2.17;;;10.80;99.90;;;;;;4994488;28;20037;-72
2023/03/22 06:52:32;;;;;;;12.15;1.88;;;10.80;99.90;;;;;;4995029;28;20142;-74
2023/03/22 06:54:58;;;;;;;4.70;1.50;;;10.80;99.90;;;;;;5025436;28;20137;-73
2023/03/22 06:57:24;;;;;;;6.93;1.40;;;10.90;99.90;;;;;;5000039;28;20038;-75
2023/03/22 06:59:50;;;;;;;4.25;1.30;;;10.80;99.90;;;;;;4999553;28;20033;-74
2023/03/22 07:02:15;;;;;;;6.32;1.58;;;10.80;99.90;;;;;;5003388;28;20037;-75
2023/03/22 07:04:41;;;;;;;5.10;1.00;;;10.80;99.90;;;;;;5012738;28;20058;-73
2023/03/22 07:07:07;;;;;;;5.13;1.52;;;10.70;99.90;;;;;;4998651;28;20528;-73
2023/03/22 07:09:32;;;;;;;5.20;1.00;;;10.70;99.90;;;;;;5000159;28;20065;-75
2023/03/22 07:11:58;;;;;;;3.25;0.85;;;10.70;99.90;;;;;;4994122;28;20033;-74
2023/03/22 07:14:24;;;;;;;5.47;1.15;;;10.70;99.90;;;;;;5007614;28;20040;-74
2023/03/22 07:16:49;;;;;;;11.65;2.08;;;10.70;99.90;;;;;;5021959;28;20103;-74
2023/03/22 07:19:17;;;;;;;5.38;0.88;;;10.70;99.90;;;;;;4994881;28;20565;-74
2023/03/22 07:21:42;;;;;;;5.20;1.05;;;10.70;99.90;;;;;;4996006;28;20388;-74
2023/03/22 07:24:10;;;;;;;3.72;0.90;;;10.80;99.90;;;;;;4994796;28;20088;-71
2023/03/22 07:26:37;;;;;;;4.95;0.73;;;10.80;99.90;;;;;;5003544;28;20034;-71
2023/03/22 07:29:02;;;;;;;7.38;1.20;;;11.00;99.90;;;;;;5003336;28;20092;-73
2023/03/22 07:31:28;;;;;;;5.72;1.00;;;11.00;99.90;;;;;;5014378;28;20579;-72
2023/03/22 07:33:54;;;;;;;4.70;1.13;;;11.20;99.90;;;;;;4998959;28;20528;-75
2023/03/22 07:36:24;;;;;;;5.00;0.90;;;11.40;99.90;;;;;;5001641;28;20026;-74
2023/03/22 07:38:51;;;;;;;7.30;1.52;;;11.50;99.90;;;;;;4996622;28;20191;-74
2023/03/22 07:41:17;;;;;;;10.32;1.25;;;11.70;99.90;;;;;;5000575;28;20099;-74
2023/03/22 07:43:43;;;;;;;7.65;1.13;;;11.80;99.90;;;;;;5000648;28;20042;-72
2023/03/22 07:46:09;;;;;;;6.80;1.17;;;11.80;99.90;;;;;;4998229;28;20522;-73
2023/03/22 07:48:35;;;;;;;5.68;1.70;;;11.80;99.90;;;;;;5000658;28;20042;-73
2023/03/22 07:51:00;;;;;;;8.40;1.80;;;11.90;99.90;;;;;;5000880;28;20034;-75
2023/03/22 07:53:26;;;;;;;9.77;1.58;;;12.10;99.90;;;;;;4999000;28;20042;-75
2023/03/22 07:55:52;;;;;;;6.47;0.95;;;12.10;99.90;;;;;;4998859;28;20771;-74
2023/03/22 07:58:17;;;;;;;6.32;1.48;;;12.20;99.90;;;;;;5001612;28;20042;-71
2023/03/22 08:00:43;;;;;;;3.33;1.13;;;12.20;99.90;;;;;;5004352;28;20548;-74
2023/03/22 08:03:11;;;;;;;4.18;1.23;;;12.20;99.90;;;;;;5002509;28;20037;-74
2023/03/22 08:05:40;;;;;;;10.57;0.90;;;12.20;99.90;;;;;;5005087;28;20095;-76
2023/03/22 08:08:06;;;;;;;8.52;1.80;;;12.20;99.90;;;;;;5007037;28;20034;-70
2023/03/22 08:10:34;;;;;;;5.55;0.80;;;12.20;99.90;;;;;;5004673;28;20037;-72
2023/03/22 08:13:00;;;;;;;5.78;0.95;;;12.30;99.90;;;;;;5001515;28;20044;-74
2023/03/22 08:15:25;;;;;;;6.80;1.08;;;12.30;99.90;;;;;;5003153;28;20065;-74
2023/03/22 08:17:51;;;;;;;11.40;1.10;;;12.20;99.90;;;;;;5000460;28;20062;-71
2023/03/22 08:20:17;;;;;;;8.55;1.45;;;12.10;99.90;;;;;;5001948;28;20128;-73
2023/03/22 08:22:44;;;;;;;5.35;0.88;;;12.00;99.90;;;;;;5004040;28;20787;-74
2023/03/22 08:25:10;;;;;;;9.13;1.05;;;11.80;99.90;;;;;;5004659;28;20027;-74
2023/03/22 08:27:36;;;;;;;9.57;0.85;;;11.90;99.90;;;;;;5017420;28;20049;-74
2023/03/22 08:30:04;;;;;;;8.60;1.10;;;11.80;99.90;;;;;;5001835;28;20042;-72
2023/03/22 08:32:30;;;;;;;9.38;1.48;;;11.90;99.90;;;;;;5003529;28;20136;-71
2023/03/22 08:34:55;;;;;;;6.90;1.17;;;12.00;99.90;;;;;;5003328;28;20080;-75
2023/03/22 08:37:21;;;;;;;5.82;1.88;;;12.00;99.90;;;;;;5001713;28;20065;-71
2023/03/22 08:39:46;;;;;;;5.60;0.85;;;12.10;99.90;;;;;;5003332;28;20034;-74
2023/03/22 08:42:12;;;;;;;8.27;1.08;;;12.00;99.90;;;;;;5002216;28;20180;-74
2023/03/22 08:44:37;;;;;;;7.97;1.17;;;12.00;99.90;;;;;;5003790;28;20050;-74
2023/03/22 08:47:03;;;;;;;6.22;0.90;;;11.90;99.90;;;;;;5003302;28;20065;-70
2023/03/22 08:49:30;;;;;;;8.73;1.30;;;11.90;99.90;;;;;;4999794;28;20056;-74
2023/03/22 08:51:56;;;;;;;6.05;1.63;;;11.90;99.90;;;;;;5001647;28;20421;-75
2023/03/22 08:54:22;;;;;;;16.88;2.85;;;11.70;99.90;;;;;;5003723;28;20030;-74
2023/03/22 08:56:49;;;;;;;5.30;1.23;;;11.70;99.90;;;;;;5002794;28;20061;-73
2023/03/22 08:59:14;;;;;;;8.32;1.15;;;11.60;99.90;;;;;;5003343;28;20041;-71
2023/03/22 09:01:43;;;;;;;8.05;1.60;;;11.50;99.90;;;;;;4998906;28;20076;-74
2023/03/22 09:04:09;;;;;;;7.20;1.50;;;11.40;99.90;;;;;;5005395;28;20406;-73
2023/03/22 09:06:36;;;;;;;7.18;1.42;;;11.40;99.90;;;;;;5007789;28;20052;-74
2023/03/22 09:09:02;;;;;;;5.63;0.98;;;11.30;99.90;;;;;;5000129;28;20770;-73
2023/03/22 09:11:28;;;;;;;9.85;1.42;;;11.30;99.90;;;;;;5002926;28;20762;-74
2023/03/22 09:13:53;;;;;;;10.13;1.08;;;11.20;99.90;;;;;;5003398;28;20136;-75
2023/03/22 09:16:19;;;;;;;9.02;0.90;;;11.20;99.90;;;;;;5019625;28;20038;-73
2023/03/22 09:18:44;;;;;;;3.25;0.77;;;11.10;99.90;;;;;;5000361;28;20026;-75
2023/03/22 09:21:11;;;;;;;9.13;0.93;;;11.10;99.90;;;;;;5001281;28;20494;-74
2023/03/22 09:23:37;;;;;;;9.05;1.23;;;11.10;99.90;;;;;;4999339;28;20048;-72
2023/03/22 09:26:06;;;;;;;5.63;1.10;;;11.00;99.90;;;;;;5000085;28;20637;-74
2023/03/22 09:28:32;;;;;;;4.75;0.93;;;10.90;99.90;;;;;;5004335;28;20074;-75
2023/03/22 09:31:05;;;;;;;5.35;1.55;;;10.90;99.90;;;;;;5001502;28;20069;-74
2023/03/22 09:33:32;;;;;;;7.32;0.75;;;10.90;99.90;;;;;;5019070;28;20029;-72
2023/03/22 09:35:57;;;;;;;7.10;1.33;;;10.90;99.90;;;;;;5001926;28;20046;-74
2023/03/22 09:38:23;;;;;;;8.05;1.40;;;10.90;99.90;;;;;;5001555;28;20049;-74
2023/03/22 09:40:59;;;;;;;7.93;0.98;;;10.80;99.90;;;;;;5015462;28;20376;-74
2023/03/22 09:43:35;;;;;;;5.93;1.88;;;10.80;99.90;;;;;;4998298;28;20100;-73
2023/03/22 09:46:04;;;;;;;7.43;1.33;;;10.70;99.90;;;;;;5001480;28;20036;-72
2023/03/22 09:48:36;;;;;;;12.45;2.30;;;10.70;99.90;;;;;;5000002;28;20065;-72
2023/03/22 09:51:04;;;;;;;4.28;1.45;;;10.80;99.90;;;;;;4998147;28;20040;-72
2023/03/22 09:53:31;;;;;;;6.88;1.88;;;10.70;99.90;;;;;;5000200;28;20387;-72
2023/03/22 09:56:10;;;;;;;5.85;1.15;;;10.70;99.90;;;;;;5000826;28;20042;-74
2023/03/22 09:59:11;;;;;;;10.80;1.90;;;10.70;99.90;;;;;;5003339;28;20092;-72
2023/03/22 10:01:58;;;;;;;12.75;1.90;;;10.80;99.90;;;;;;4998808;28;20046;-73
2023/03/22 10:04:42;;;;;;;10.77;1.63;;;10.70;99.90;;;;;;5003574;28;20030;-73
2023/03/22 10:07:26;;;;;;;7.10;1.00;;;10.60;99.90;;;;;;5001770;28;20093;-74
2023/03/22 10:09:54;;;;;;;8.15;1.33;;;10.60;99.90;;;;;;5002761;28;20125;-73
2023/03/22 10:12:42;;;;;;;9.30;1.52;;;10.50;99.90;;;;;;5001831;28;20100;-72
2023/03/22 10:15:22;;;;;;;10.13;1.40;;;10.50;99.90;;;;;;4998915;28;20042;-73
2023/03/22 10:17:54;;;;;;;7.22;1.15;;;10.50;99.90;;;;;;5001205;28;20044;-73
2023/03/22 10:20:31;;;;;;;7.88;1.00;;;10.50;99.90;;;;;;5001919;28;20033;-73
2023/03/22 10:23:00;;;;;;;5.55;1.30;;;10.50;99.90;;;;;;4999695;28;20037;-73
2023/03/22 10:25:35;;;;;;;7.05;1.70;;;10.50;99.90;;;;;;4999074;28;20042;-72
2023/03/22 10:28:01;;;;;;;4.25;1.20;;;10.40;99.90;;;;;;4999775;28;20030;-72
2023/03/22 10:30:32;;;;;;;5.28;1.10;;;10.40;99.90;;;;;;5002536;28;20044;-73
2023/03/22 10:33:08;;;;;;;11.27;1.95;;;10.40;99.90;;;;;;5000773;28;20026;-73
2023/03/22 10:35:35;;;;;;;5.40;1.20;;;10.30;99.90;;;;;;4999195;28;20030;-73
2023/03/22 10:38:04;;;;;;;6.55;1.48;;;10.30;99.90;;;;;;5001570;28;20026;-72
2023/03/22 10:40:33;;;;;;;4.45;1.10;;;10.30;99.90;;;;;;5000934;28;20533;-73
2023/03/22 10:43:02;;;;;;;8.73;1.40;;;10.30;99.90;;;;;;4998970;28;20030;-72
2023/03/22 10:45:32;;;;;;;10.43;1.23;;;10.30;99.90;;;;;;4998802;28;20038;-72
2023/03/22 10:48:06;;;;;;;10.77;1.45;;;10.30;99.90;;;;;;5000935;28;20037;-73
2023/03/22 10:50:37;;;;;;;9.25;1.15;;;10.40;99.90;;;;;;4997029;28;20041;-72
2023/03/22 10:53:03;;;;;;;5.45;1.60;;;10.40;99.90;;;;;;4995247;28;20735;-73
2023/03/22 10:55:29;;;;;;;9.07;1.58;;;10.50;99.90;;;;;;5000088;28;20044;-74
2023/03/22 10:58:19;;;;;;;9.45;1.60;;;10.60;99.90;;;;;;4998962;28;20026;-73
2023/03/22 11:00:50;;;;;;;8.77;1.30;;;10.60;99.90;;;;;;4999216;28;20418;-73
2023/03/22 11:03:35;;;;;;;4.70;1.20;;;10.70;99.90;;;;;;4993878;28;20033;-73
2023/03/22 11:06:09;;;;;;;5.15;2.38;;;10.80;99.90;;;;;;4999330;28;20053;-73
2023/03/22 11:08:47;;;;;;;10.75;1.88;;;10.80;99.90;;;;;;4998030;28;20037;-73
2023/03/22 11:11:33;;;;;;;3.40;1.45;;;10.90;99.90;;;;;;4997861;28;20037;-73
2023/03/22 11:14:12;;;;;;;8.75;1.70;;;10.90;99.90;;;;;;4995436;28;20133;-73
2023/03/22 11:17:08;;;;;;;11.23;1.60;;;10.90;99.90;;;;;;5013405;28;20042;-73
2023/03/22 11:19:36;;;;;;;9.63;1.85;;;10.90;99.90;;;;;;4998858;28;20651;-72
2023/03/22 11:22:05;;;;;;;10.35;1.75;;;11.00;99.90;;;;;;4996357;28;20045;-73
2023/03/22 11:24:32;;;;;;;6.40;1.02;;;11.10;99.90;;;;;;4997565;28;20044;-74
2023/03/22 11:27:01;;;;;;;4.60;0.90;;;11.20;99.90;;;;;;4998853;28;20065;-72
2023/03/22 11:29:27;;;;;;;6.53;1.17;;;11.30;99.90;;;;;;4998546;28;20057;-72
2023/03/22 11:31:58;;;;;;;6.22;1.15;;;11.30;99.90;;;;;;4997695;28;20038;-73
2023/03/22 11:34:27;;;;;;;8.02;1.23;;;11.30;99.90;;;;;;4996689;28;20042;-73
2023/03/22 11:36:55;;;;;;;4.78;1.00;;;11.30;99.90;;;;;;4997690;28;20176;-72
2023/03/22 11:39:23;;;;;;;8.80;0.98;;;11.40;99.90;;;;;;4998158;28;20058;-74
2023/03/22 11:41:50;;;;;;;5.28;0.90;;;11.40;99.90;;;;;;4993475;28;20038;-73
2023/03/22 11:44:20;;;;;;;3.75;0.93;;;11.40;99.90;;;;;;5001533;28;20042;-73
2023/03/22 11:47:07;;;;;;;3.50;0.73;;;11.40;99.90;;;;;;4998288;28;20042;-73
2023/03/22 11:49:46;;;;;;;6.40;1.20;;;11.40;99.90;;;;;;4999064;28;20040;-73
2023/03/22 11:52:18;;;;;;;7.47;1.73;;;11.40;99.90;;;;;;4997125;28;20042;-73
2023/03/22 11:54:45;;;;;;;4.30;1.45;;;11.30;99.90;;;;;;4997232;28;20512;-74
2023/03/22 11:57:19;;;;;;;3.97;1.10;;;11.30;99.90;;;;;;4999142;28;20121;-72
2023/03/22 12:00:10;;;;;;;5.75;1.70;;;11.30;99.90;;;;;;4998473;28;20034;-72
2023/03/22 12:02:51;;;;;;;3.65;1.00;;;11.30;99.90;;;;;;4999472;28;20068;-73
2023/03/22 12:05:26;;;;;;;8.38;1.25;;;11.30;99.90;;;;;;4995020;28;20037;-73
2023/03/22 12:07:57;;;;;;;5.25;0.95;;;11.30;99.90;;;;;;5016559;28;20438;-72
2023/03/22 12:10:30;;;;;;;5.22;1.00;;;11.30;99.90;;;;;;5002020;28;20035;-73
2023/03/22 12:13:03;;;;;;;4.93;1.80;;;11.30;99.90;;;;;;4998179;28;20026;-72
2023/03/22 12:15:34;;;;;;;6.50;1.00;;;11.30;99.90;;;;;;4997854;28;20034;-73
2023/03/22 12:18:04;;;;;;;3.00;0.73;;;11.30;99.90;;;;;;5001425;28;20084;-73
2023/03/22 12:20:38;;;;;;;;;;;11.30;99.90;;;;;;4997501;28;21011;-73
2023/03/22 12:23:16;;;;;;;3.08;0.68;;;11.30;99.90;;;;;;4999298;28;19917;-73
2023/03/22 12:26:02;;;;;;;2.42;0.60;;;11.30;99.90;;;;;;4995538;28;20042;-74
2023/03/22 12:28:37;;;;;;;4.70;0.88;;;11.30;99.90;;;;;;4998284;28;20041;-73
2023/03/22 12:31:06;;;;;;;1.80;0.98;;;11.30;99.90;;;;;;4999606;28;20106;-71
2023/03/22 12:33:42;;;;;;;10.40;1.52;;;11.30;99.90;;;;;;5000285;28;20038;-73
2023/03/22 12:36:15;;;;;;;5.78;0.80;;;11.30;99.90;;;;;;4998376;28;20140;-75
2023/03/22 12:39:01;;;;;;;4.82;1.20;;;11.30;99.90;;;;;;4998759;28;20034;-74
2023/03/22 12:41:45;;;;;;;5.45;0.95;;;11.30;99.90;;;;;;4999149;28;20044;-73
2023/03/22 12:44:17;;;;;;;4.13;1.42;;;11.40;99.90;;;;;;4999526;28;20437;-72
2023/03/22 12:46:50;;;;;;;5.65;0.93;;;11.40;99.90;;;;;;5001995;28;20050;-73
2023/03/22 12:49:24;;;;;;;6.25;0.95;;;11.40;99.90;;;;;;5014257;28;20035;-73
2023/03/22 12:51:53;;;;;;;8.07;1.25;;;11.40;99.90;;;;;;5002190;28;20067;-72
2023/03/22 12:54:24;;;;;;;3.72;1.13;;;11.40;99.90;;;;;;5001433;28;20094;-72
2023/03/22 12:56:50;;;;;;;3.90;1.10;;;11.40;99.90;;;;;;5002090;28;20030;-72
2023/03/22 12:59:24;;;;;;;6.03;0.80;;;11.40;99.90;;;;;;5002959;28;20030;-75
2023/03/22 13:01:53;;;;;;;2.97;0.77;;;11.40;99.90;;;;;;5002187;28;20122;-75
2023/03/22 13:04:35;;;;;;;5.60;1.83;;;11.40;99.90;;;;;;5004268;28;20902;-73